sensor_id;sensor_type;location;lat;lon;timestamp;temperature;humidity
11144;DHT22;5626;44.730;10.276;2022-07-12T00:00:57;24.60;78.30
11144;DHT22;5626;44.730;10.276;2022-07-12T00:03:26;24.60;78.60
11144;DHT22;5626;44.730;10.276;2022-07-12T00:05:56;24.60;78.90
11144;DHT22;5626;44.730;10.276;2022-07-12T00:08:26;24.60;78.90
11144;DHT22;5626;44.730;10.276;2022-07-12T00:10:56;24.60;78.80
11144;DHT22;5626;44.730;10.276;2022-07-12T00:13:27;24.50;78.70
11144;DHT22;5626;44.730;10.276;2022-07-12T00:15:58;24.50;78.80
11144;DHT22;5626;44.730;10.276;2022-07-12T00:18:28;24.50;78.80
11144;DHT22;5626;44.730;10.276;2022-07-12T00:20:57;24.50;79.00
11144;DHT22;5626;44.730;10.276;2022-07-12T00:23:27;24.50;79.20
11144;DHT22;5626;44.730;10.276;2022-07-12T00:25:57;24.50;79.30
11144;DHT22;5626;44.730;10.276;2022-07-12T00:28:29;24.40;79.30
11144;DHT22;5626;44.730;10.276;2022-07-12T00:31:00;24.40;79.80
11144;DHT22;5626;44.730;10.276;2022-07-12T00:33:29;24.30;80.00
11144;DHT22;5626;44.730;10.276;2022-07-12T00:35:59;24.30;80.10
11144;DHT22;5626;44.730;10.276;2022-07-12T00:38:29;24.30;80.20
11144;DHT22;5626;44.730;10.276;2022-07-12T00:40:58;24.20;80.40
11144;DHT22;5626;44.730;10.276;2022-07-12T00:43:29;24.20;80.60
11144;DHT22;5626;44.730;10.276;2022-07-12T00:45:59;24.10;80.80
11144;DHT22;5626;44.730;10.276;2022-07-12T00:48:30;24.20;81.10
11144;DHT22;5626;44.730;10.276;2022-07-12T00:51:01;24.20;81.20
11144;DHT22;5626;44.730;10.276;2022-07-12T00:53:30;24.10;81.20
11144;DHT22;5626;44.730;10.276;2022-07-12T00:56:01;24.10;81.40
11144;DHT22;5626;44.730;10.276;2022-07-12T00:58:34;24.10;81.50
11144;DHT22;5626;44.730;10.276;2022-07-12T01:01:04;24.10;81.60
11144;DHT22;5626;44.730;10.276;2022-07-12T01:03:33;24.00;81.90
11144;DHT22;5626;44.730;10.276;2022-07-12T01:06:04;24.00;82.30
11144;DHT22;5626;44.730;10.276;2022-07-12T01:08:38;24.00;82.70
11144;DHT22;5626;44.730;10.276;2022-07-12T01:11:08;24.00;82.40
11144;DHT22;5626;44.730;10.276;2022-07-12T01:13:39;23.90;82.40
11144;DHT22;5626;44.730;10.276;2022-07-12T01:16:11;23.90;82.50
11144;DHT22;5626;44.730;10.276;2022-07-12T01:18:42;23.90;82.90
11144;DHT22;5626;44.730;10.276;2022-07-12T01:21:18;23.90;82.90
11144;DHT22;5626;44.730;10.276;2022-07-12T01:23:50;24.00;82.80
11144;DHT22;5626;44.730;10.276;2022-07-12T01:26:19;24.00;82.90
11144;DHT22;5626;44.730;10.276;2022-07-12T01:28:50;24.00;83.00
11144;DHT22;5626;44.730;10.276;2022-07-12T01:31:20;24.00;83.10
11144;DHT22;5626;44.730;10.276;2022-07-12T01:33:50;24.00;83.30
11144;DHT22;5626;44.730;10.276;2022-07-12T01:36:20;24.00;83.20
11144;DHT22;5626;44.730;10.276;2022-07-12T01:38:51;24.00;83.30
11144;DHT22;5626;44.730;10.276;2022-07-12T01:41:21;24.00;83.30
11144;DHT22;5626;44.730;10.276;2022-07-12T01:43:51;24.00;83.40
11144;DHT22;5626;44.730;10.276;2022-07-12T01:46:21;23.90;83.50
11144;DHT22;5626;44.730;10.276;2022-07-12T01:48:51;23.90;83.70
11144;DHT22;5626;44.730;10.276;2022-07-12T01:51:20;23.90;83.80
11144;DHT22;5626;44.730;10.276;2022-07-12T01:53:52;23.90;84.00
11144;DHT22;5626;44.730;10.276;2022-07-12T01:56:21;23.90;84.20
11144;DHT22;5626;44.730;10.276;2022-07-12T01:58:51;23.90;84.30
11144;DHT22;5626;44.730;10.276;2022-07-12T02:01:21;23.90;84.30
11144;DHT22;5626;44.730;10.276;2022-07-12T02:03:51;23.90;84.50
11144;DHT22;5626;44.730;10.276;2022-07-12T02:06:21;23.90;84.70
11144;DHT22;5626;44.730;10.276;2022-07-12T02:08:52;23.90;84.70
11144;DHT22;5626;44.730;10.276;2022-07-12T02:11:22;23.90;84.80
11144;DHT22;5626;44.730;10.276;2022-07-12T02:13:52;23.80;85.00
11144;DHT22;5626;44.730;10.276;2022-07-12T02:16:22;23.80;85.20
11144;DHT22;5626;44.730;10.276;2022-07-12T02:18:51;23.80;85.30
11144;DHT22;5626;44.730;10.276;2022-07-12T02:21:21;23.70;85.20
11144;DHT22;5626;44.730;10.276;2022-07-12T02:23:53;23.70;85.40
11144;DHT22;5626;44.730;10.276;2022-07-12T02:26:23;23.70;85.70
11144;DHT22;5626;44.730;10.276;2022-07-12T02:28:52;23.70;85.70
11144;DHT22;5626;44.730;10.276;2022-07-12T02:31:22;23.60;85.90
11144;DHT22;5626;44.730;10.276;2022-07-12T02:33:52;23.60;86.20
11144;DHT22;5626;44.730;10.276;2022-07-12T02:36:21;23.60;86.30
11144;DHT22;5626;44.730;10.276;2022-07-12T02:38:52;23.60;86.60
11144;DHT22;5626;44.730;10.276;2022-07-12T02:41:22;23.50;86.90
11144;DHT22;5626;44.730;10.276;2022-07-12T02:43:52;23.50;87.20
11144;DHT22;5626;44.730;10.276;2022-07-12T02:46:22;23.50;87.50
11144;DHT22;5626;44.730;10.276;2022-07-12T02:48:52;23.40;88.00
11144;DHT22;5626;44.730;10.276;2022-07-12T02:51:21;23.40;88.60
11144;DHT22;5626;44.730;10.276;2022-07-12T02:53:52;23.40;88.70
11144;DHT22;5626;44.730;10.276;2022-07-12T02:56:22;23.30;88.50
11144;DHT22;5626;44.730;10.276;2022-07-12T02:58:51;23.30;88.50
11144;DHT22;5626;44.730;10.276;2022-07-12T03:01:21;23.30;88.60
11144;DHT22;5626;44.730;10.276;2022-07-12T03:03:51;23.30;88.70
11144;DHT22;5626;44.730;10.276;2022-07-12T03:06:20;23.30;88.50
11144;DHT22;5626;44.730;10.276;2022-07-12T03:08:50;23.30;88.30
11144;DHT22;5626;44.730;10.276;2022-07-12T03:11:21;23.20;88.50
11144;DHT22;5626;44.730;10.276;2022-07-12T03:13:50;23.20;88.80
11144;DHT22;5626;44.730;10.276;2022-07-12T03:16:20;23.10;89.20
11144;DHT22;5626;44.730;10.276;2022-07-12T03:18:49;23.00;89.40
11144;DHT22;5626;44.730;10.276;2022-07-12T03:21:19;23.00;89.70
11144;DHT22;5626;44.730;10.276;2022-07-12T03:23:49;22.90;89.70
11144;DHT22;5626;44.730;10.276;2022-07-12T03:26:20;22.80;90.00
11144;DHT22;5626;44.730;10.276;2022-07-12T03:28:51;22.70;90.10
11144;DHT22;5626;44.730;10.276;2022-07-12T03:31:20;22.80;90.20
11144;DHT22;5626;44.730;10.276;2022-07-12T03:33:50;22.80;90.20
11144;DHT22;5626;44.730;10.276;2022-07-12T03:36:20;22.70;90.30
11144;DHT22;5626;44.730;10.276;2022-07-12T03:38:49;22.60;90.50
11144;DHT22;5626;44.730;10.276;2022-07-12T03:41:20;22.50;90.70
11144;DHT22;5626;44.730;10.276;2022-07-12T03:43:50;22.40;90.90
11144;DHT22;5626;44.730;10.276;2022-07-12T03:46:19;22.40;91.00
11144;DHT22;5626;44.730;10.276;2022-07-12T03:48:49;22.40;91.00
11144;DHT22;5626;44.730;10.276;2022-07-12T03:51:18;22.40;91.10
11144;DHT22;5626;44.730;10.276;2022-07-12T03:53:48;22.40;91.20
11144;DHT22;5626;44.730;10.276;2022-07-12T03:56:17;22.30;91.30
11144;DHT22;5626;44.730;10.276;2022-07-12T03:59:02;22.30;91.40
11144;DHT22;5626;44.730;10.276;2022-07-12T04:01:32;22.40;91.40
11144;DHT22;5626;44.730;10.276;2022-07-12T04:04:02;22.40;91.40
11144;DHT22;5626;44.730;10.276;2022-07-12T04:06:32;22.50;91.30
11144;DHT22;5626;44.730;10.276;2022-07-12T04:09:01;22.50;91.30
11144;DHT22;5626;44.730;10.276;2022-07-12T04:11:31;22.50;91.30
11144;DHT22;5626;44.730;10.276;2022-07-12T04:14:02;22.60;91.30
11144;DHT22;5626;44.730;10.276;2022-07-12T04:16:32;22.60;91.20
11144;DHT22;5626;44.730;10.276;2022-07-12T04:19:02;22.70;91.00
11144;DHT22;5626;44.730;10.276;2022-07-12T04:21:33;22.70;91.00
11144;DHT22;5626;44.730;10.276;2022-07-12T04:24:03;22.80;90.90
11144;DHT22;5626;44.730;10.276;2022-07-12T04:26:33;22.80;90.90
11144;DHT22;5626;44.730;10.276;2022-07-12T04:29:04;22.90;90.80
11144;DHT22;5626;44.730;10.276;2022-07-12T04:31:34;23.00;90.80
11144;DHT22;5626;44.730;10.276;2022-07-12T04:34:03;23.00;90.70
11144;DHT22;5626;44.730;10.276;2022-07-12T04:36:33;23.00;90.70
11144;DHT22;5626;44.730;10.276;2022-07-12T04:39:03;23.10;90.60
11144;DHT22;5626;44.730;10.276;2022-07-12T04:41:34;23.10;90.60
11144;DHT22;5626;44.730;10.276;2022-07-12T04:44:05;23.30;90.40
11144;DHT22;5626;44.730;10.276;2022-07-12T04:46:35;23.30;90.40
11144;DHT22;5626;44.730;10.276;2022-07-12T04:49:05;23.30;90.40
11144;DHT22;5626;44.730;10.276;2022-07-12T04:51:34;23.30;90.50
11144;DHT22;5626;44.730;10.276;2022-07-12T04:54:04;23.40;90.50
11144;DHT22;5626;44.730;10.276;2022-07-12T04:56:34;23.50;90.40
11144;DHT22;5626;44.730;10.276;2022-07-12T04:59:05;23.50;90.50
11144;DHT22;5626;44.730;10.276;2022-07-12T05:01:35;23.60;90.30
11144;DHT22;5626;44.730;10.276;2022-07-12T05:04:05;23.60;90.50
11144;DHT22;5626;44.730;10.276;2022-07-12T05:06:34;23.60;90.60
11144;DHT22;5626;44.730;10.276;2022-07-12T05:09:04;23.80;90.40
11144;DHT22;5626;44.730;10.276;2022-07-12T05:11:33;23.90;90.30
11144;DHT22;5626;44.730;10.276;2022-07-12T05:14:05;24.10;90.00
11144;DHT22;5626;44.730;10.276;2022-07-12T05:16:34;24.20;89.10
11144;DHT22;5626;44.730;10.276;2022-07-12T05:19:04;24.50;87.90
11144;DHT22;5626;44.730;10.276;2022-07-12T05:21:34;24.60;87.00
11144;DHT22;5626;44.730;10.276;2022-07-12T05:24:04;24.70;86.50
11144;DHT22;5626;44.730;10.276;2022-07-12T05:26:35;24.80;86.40
11144;DHT22;5626;44.730;10.276;2022-07-12T05:29:06;25.00;85.80
11144;DHT22;5626;44.730;10.276;2022-07-12T05:31:36;25.20;85.70
11144;DHT22;5626;44.730;10.276;2022-07-12T05:34:05;25.40;84.80
11144;DHT22;5626;44.730;10.276;2022-07-12T05:36:35;25.60;84.30
11144;DHT22;5626;44.730;10.276;2022-07-12T05:39:05;25.70;83.90
11144;DHT22;5626;44.730;10.276;2022-07-12T05:41:35;25.60;83.90
11144;DHT22;5626;44.730;10.276;2022-07-12T05:44:06;25.60;84.50
11144;DHT22;5626;44.730;10.276;2022-07-12T05:46:36;25.60;84.50
11144;DHT22;5626;44.730;10.276;2022-07-12T05:49:06;25.60;84.10
11144;DHT22;5626;44.730;10.276;2022-07-12T05:51:36;25.70;84.00
11144;DHT22;5626;44.730;10.276;2022-07-12T05:54:23;25.70;83.70
11144;DHT22;5626;44.730;10.276;2022-07-12T05:56:53;25.60;83.60
11144;DHT22;5626;44.730;10.276;2022-07-12T05:59:24;25.50;84.00
11144;DHT22;5626;44.730;10.276;2022-07-12T06:01:53;25.40;84.20
11144;DHT22;5626;44.730;10.276;2022-07-12T06:04:23;25.40;84.60
11144;DHT22;5626;44.730;10.276;2022-07-12T06:06:52;25.40;84.70
11144;DHT22;5626;44.730;10.276;2022-07-12T06:09:23;25.50;85.10
11144;DHT22;5626;44.730;10.276;2022-07-12T06:11:53;25.60;85.00
11144;DHT22;5626;44.730;10.276;2022-07-12T06:14:24;25.70;84.20
11144;DHT22;5626;44.730;10.276;2022-07-12T06:16:54;25.90;84.00
11144;DHT22;5626;44.730;10.276;2022-07-12T06:19:23;26.10;83.30
11144;DHT22;5626;44.730;10.276;2022-07-12T06:21:53;26.20;82.30
11144;DHT22;5626;44.730;10.276;2022-07-12T06:24:23;26.30;81.90
11144;DHT22;5626;44.730;10.276;2022-07-12T06:26:53;26.30;81.90
11144;DHT22;5626;44.730;10.276;2022-07-12T06:29:24;26.30;81.70
11144;DHT22;5626;44.730;10.276;2022-07-12T06:31:53;26.30;82.40
11144;DHT22;5626;44.730;10.276;2022-07-12T06:34:24;26.40;81.90
11144;DHT22;5626;44.730;10.276;2022-07-12T06:36:53;26.40;81.90
11144;DHT22;5626;44.730;10.276;2022-07-12T06:39:23;26.50;81.90
11144;DHT22;5626;44.730;10.276;2022-07-12T06:41:52;26.60;81.70
11144;DHT22;5626;44.730;10.276;2022-07-12T06:44:24;26.70;81.30
11144;DHT22;5626;44.730;10.276;2022-07-12T06:46:53;26.80;81.10
11144;DHT22;5626;44.730;10.276;2022-07-12T06:49:23;26.80;81.00
11144;DHT22;5626;44.730;10.276;2022-07-12T06:51:53;26.90;81.20
11144;DHT22;5626;44.730;10.276;2022-07-12T06:54:23;27.00;80.80
11144;DHT22;5626;44.730;10.276;2022-07-12T06:56:53;27.00;80.80
11144;DHT22;5626;44.730;10.276;2022-07-12T06:59:24;27.00;80.50
11144;DHT22;5626;44.730;10.276;2022-07-12T07:01:54;27.10;80.30
11144;DHT22;5626;44.730;10.276;2022-07-12T07:04:25;27.20;80.10
11144;DHT22;5626;44.730;10.276;2022-07-12T07:06:55;27.40;79.50
11144;DHT22;5626;44.730;10.276;2022-07-12T07:09:25;27.50;78.90
11144;DHT22;5626;44.730;10.276;2022-07-12T07:11:54;27.80;78.60
11144;DHT22;5626;44.730;10.276;2022-07-12T07:14:25;28.00;77.70
11144;DHT22;5626;44.730;10.276;2022-07-12T07:16:55;28.10;77.20
11144;DHT22;5626;44.730;10.276;2022-07-12T07:19:25;28.30;76.90
11144;DHT22;5626;44.730;10.276;2022-07-12T07:21:55;28.50;76.80
11144;DHT22;5626;44.730;10.276;2022-07-12T07:24:27;28.60;76.00
11144;DHT22;5626;44.730;10.276;2022-07-12T07:26:56;28.80;75.30
11144;DHT22;5626;44.730;10.276;2022-07-12T07:29:28;28.80;75.00
11144;DHT22;5626;44.730;10.276;2022-07-12T07:32:15;28.80;75.60
11144;DHT22;5626;44.730;10.276;2022-07-12T07:34:45;28.90;75.40
11144;DHT22;5626;44.730;10.276;2022-07-12T07:37:14;28.80;74.60
11144;DHT22;5626;44.730;10.276;2022-07-12T07:39:44;29.00;74.80
11144;DHT22;5626;44.730;10.276;2022-07-12T07:42:16;29.10;74.70
11144;DHT22;5626;44.730;10.276;2022-07-12T07:44:47;29.30;74.20
11144;DHT22;5626;44.730;10.276;2022-07-12T07:47:41;29.20;72.70
11144;DHT22;5626;44.730;10.276;2022-07-12T07:50:20;29.10;72.70
11144;DHT22;5626;44.730;10.276;2022-07-12T07:52:49;29.10;72.70
11144;DHT22;5626;44.730;10.276;2022-07-12T07:55:19;29.30;72.90
11144;DHT22;5626;44.730;10.276;2022-07-12T07:57:49;29.50;72.10
11144;DHT22;5626;44.730;10.276;2022-07-12T08:00:20;29.60;72.00
11144;DHT22;5626;44.730;10.276;2022-07-12T08:02:50;29.80;72.10
11144;DHT22;5626;44.730;10.276;2022-07-12T08:05:19;29.90;71.10
11144;DHT22;5626;44.730;10.276;2022-07-12T08:07:52;30.10;70.80
11144;DHT22;5626;44.730;10.276;2022-07-12T08:10:23;30.20;70.00
11144;DHT22;5626;44.730;10.276;2022-07-12T08:12:55;30.30;69.30
11144;DHT22;5626;44.730;10.276;2022-07-12T08:15:26;30.30;69.40
11144;DHT22;5626;44.730;10.276;2022-07-12T08:17:56;30.30;69.90
11144;DHT22;5626;44.730;10.276;2022-07-12T08:20:26;30.30;69.60
11144;DHT22;5626;44.730;10.276;2022-07-12T08:23:12;30.40;69.80
11144;DHT22;5626;44.730;10.276;2022-07-12T08:25:42;30.50;69.00
11144;DHT22;5626;44.730;10.276;2022-07-12T08:28:11;30.50;67.90
11144;DHT22;5626;44.730;10.276;2022-07-12T08:30:42;30.60;67.70
11144;DHT22;5626;44.730;10.276;2022-07-12T08:33:14;30.60;68.00
11144;DHT22;5626;44.730;10.276;2022-07-12T08:35:44;30.50;68.40
11144;DHT22;5626;44.730;10.276;2022-07-12T08:38:14;30.60;67.70
11144;DHT22;5626;44.730;10.276;2022-07-12T08:40:44;30.80;67.20
11144;DHT22;5626;44.730;10.276;2022-07-12T08:43:14;31.00;66.80
11144;DHT22;5626;44.730;10.276;2022-07-12T08:45:45;31.30;66.70
11144;DHT22;5626;44.730;10.276;2022-07-12T08:48:14;31.50;66.20
11144;DHT22;5626;44.730;10.276;2022-07-12T08:51:00;31.60;65.30
11144;DHT22;5626;44.730;10.276;2022-07-12T08:53:32;31.60;64.80
11144;DHT22;5626;44.730;10.276;2022-07-12T08:56:02;31.70;65.40
11144;DHT22;5626;44.730;10.276;2022-07-12T08:58:32;31.80;65.00
11144;DHT22;5626;44.730;10.276;2022-07-12T09:01:04;32.00;64.90
11144;DHT22;5626;44.730;10.276;2022-07-12T09:03:34;32.00;64.60
11144;DHT22;5626;44.730;10.276;2022-07-12T09:06:05;32.00;65.30
11144;DHT22;5626;44.730;10.276;2022-07-12T09:08:39;32.00;64.70
11144;DHT22;5626;44.730;10.276;2022-07-12T09:11:08;32.00;65.10
11144;DHT22;5626;44.730;10.276;2022-07-12T09:13:52;32.20;63.80
11144;DHT22;5626;44.730;10.276;2022-07-12T09:16:24;32.50;63.30
11144;DHT22;5626;44.730;10.276;2022-07-12T09:19:12;32.70;62.70
11144;DHT22;5626;44.730;10.276;2022-07-12T09:21:50;32.60;62.60
11144;DHT22;5626;44.730;10.276;2022-07-12T09:24:23;32.60;62.30
11144;DHT22;5626;44.730;10.276;2022-07-12T09:26:56;32.50;62.00
11144;DHT22;5626;44.730;10.276;2022-07-12T09:29:27;32.50;62.20
11144;DHT22;5626;44.730;10.276;2022-07-12T09:32:06;32.50;62.30
11144;DHT22;5626;44.730;10.276;2022-07-12T09:34:56;32.60;62.70
11144;DHT22;5626;44.730;10.276;2022-07-12T09:37:43;32.90;61.40
11144;DHT22;5626;44.730;10.276;2022-07-12T09:40:13;33.10;60.30
11144;DHT22;5626;44.730;10.276;2022-07-12T09:42:43;33.20;60.30
11144;DHT22;5626;44.730;10.276;2022-07-12T09:45:15;33.20;60.80
11144;DHT22;5626;44.730;10.276;2022-07-12T09:47:47;33.30;60.90
11144;DHT22;5626;44.730;10.276;2022-07-12T09:50:18;33.40;59.30
11144;DHT22;5626;44.730;10.276;2022-07-12T09:52:48;33.50;59.30
11144;DHT22;5626;44.730;10.276;2022-07-12T09:55:24;33.70;59.50
11144;DHT22;5626;44.730;10.276;2022-07-12T09:57:55;33.90;58.80
11144;DHT22;5626;44.730;10.276;2022-07-12T10:00:26;34.00;57.50
11144;DHT22;5626;44.730;10.276;2022-07-12T10:02:58;34.20;57.90
11144;DHT22;5626;44.730;10.276;2022-07-12T10:05:30;34.40;57.00
11144;DHT22;5626;44.730;10.276;2022-07-12T10:08:01;34.30;56.90
11144;DHT22;5626;44.730;10.276;2022-07-12T10:10:32;34.20;57.10
11144;DHT22;5626;44.730;10.276;2022-07-12T10:13:01;33.90;57.00
11144;DHT22;5626;44.730;10.276;2022-07-12T10:15:33;33.60;57.80
11144;DHT22;5626;44.730;10.276;2022-07-12T10:18:05;33.50;57.80
11144;DHT22;5626;44.730;10.276;2022-07-12T10:20:41;33.50;58.40
11144;DHT22;5626;44.730;10.276;2022-07-12T10:23:34;33.60;57.40
11144;DHT22;5626;44.730;10.276;2022-07-12T10:26:37;33.50;57.10
11144;DHT22;5626;44.730;10.276;2022-07-12T10:29:10;33.40;58.60
11144;DHT22;5626;44.730;10.276;2022-07-12T10:31:48;33.10;58.70
11144;DHT22;5626;44.730;10.276;2022-07-12T10:34:23;33.00;59.80
11144;DHT22;5626;44.730;10.276;2022-07-12T10:37:19;33.20;59.40
11144;DHT22;5626;44.730;10.276;2022-07-12T10:40:13;33.40;59.40
11144;DHT22;5626;44.730;10.276;2022-07-12T10:43:17;33.70;58.90
11144;DHT22;5626;44.730;10.276;2022-07-12T10:45:47;33.90;57.80
11144;DHT22;5626;44.730;10.276;2022-07-12T10:48:22;34.10;57.90
11144;DHT22;5626;44.730;10.276;2022-07-12T10:50:55;34.40;56.60
11144;DHT22;5626;44.730;10.276;2022-07-12T10:53:30;34.50;56.20
11144;DHT22;5626;44.730;10.276;2022-07-12T10:56:12;34.60;54.90
11144;DHT22;5626;44.730;10.276;2022-07-12T10:58:45;34.60;54.00
11144;DHT22;5626;44.730;10.276;2022-07-12T11:01:18;34.50;54.10
11144;DHT22;5626;44.730;10.276;2022-07-12T11:03:49;34.40;55.10
11144;DHT22;5626;44.730;10.276;2022-07-12T11:06:21;34.50;55.70
11144;DHT22;5626;44.730;10.276;2022-07-12T11:08:56;34.30;56.20
11144;DHT22;5626;44.730;10.276;2022-07-12T11:11:28;34.40;55.70
11144;DHT22;5626;44.730;10.276;2022-07-12T11:13:59;34.50;55.90
11144;DHT22;5626;44.730;10.276;2022-07-12T11:16:30;34.60;55.20
11144;DHT22;5626;44.730;10.276;2022-07-12T11:19:01;34.40;54.70
11144;DHT22;5626;44.730;10.276;2022-07-12T11:21:35;34.30;54.40
11144;DHT22;5626;44.730;10.276;2022-07-12T11:24:15;34.10;55.10
11144;DHT22;5626;44.730;10.276;2022-07-12T11:26:46;34.30;54.90
11144;DHT22;5626;44.730;10.276;2022-07-12T11:29:16;34.50;54.10
11144;DHT22;5626;44.730;10.276;2022-07-12T11:31:47;34.60;54.10
11144;DHT22;5626;44.730;10.276;2022-07-12T11:34:20;34.80;54.60
11144;DHT22;5626;44.730;10.276;2022-07-12T11:36:53;34.90;53.80
11144;DHT22;5626;44.730;10.276;2022-07-12T11:39:30;35.00;53.00
11144;DHT22;5626;44.730;10.276;2022-07-12T11:42:01;34.80;53.60
11144;DHT22;5626;44.730;10.276;2022-07-12T11:44:45;34.80;53.70
11144;DHT22;5626;44.730;10.276;2022-07-12T11:47:17;34.70;53.30
11144;DHT22;5626;44.730;10.276;2022-07-12T11:49:48;34.50;53.80
11144;DHT22;5626;44.730;10.276;2022-07-12T11:52:21;34.60;54.70
11144;DHT22;5626;44.730;10.276;2022-07-12T11:54:52;34.80;53.80
11144;DHT22;5626;44.730;10.276;2022-07-12T11:57:25;34.80;53.30
11144;DHT22;5626;44.730;10.276;2022-07-12T11:59:55;34.90;53.30
11144;DHT22;5626;44.730;10.276;2022-07-12T12:02:29;34.90;53.30
11144;DHT22;5626;44.730;10.276;2022-07-12T12:04:58;34.90;53.30
11144;DHT22;5626;44.730;10.276;2022-07-12T12:07:30;34.90;53.40
11144;DHT22;5626;44.730;10.276;2022-07-12T12:10:02;34.90;53.80
11144;DHT22;5626;44.730;10.276;2022-07-12T12:12:37;34.80;53.60
11144;DHT22;5626;44.730;10.276;2022-07-12T12:15:09;34.90;53.20
11144;DHT22;5626;44.730;10.276;2022-07-12T12:17:44;34.80;53.00
11144;DHT22;5626;44.730;10.276;2022-07-12T12:20:17;34.80;52.90
11144;DHT22;5626;44.730;10.276;2022-07-12T12:22:50;34.60;52.70
11144;DHT22;5626;44.730;10.276;2022-07-12T12:25:22;34.50;52.90
11144;DHT22;5626;44.730;10.276;2022-07-12T12:27:55;34.60;53.40
11144;DHT22;5626;44.730;10.276;2022-07-12T12:30:49;34.80;53.40
11144;DHT22;5626;44.730;10.276;2022-07-12T12:33:37;34.90;52.80
11144;DHT22;5626;44.730;10.276;2022-07-12T12:36:21;35.10;52.40
11144;DHT22;5626;44.730;10.276;2022-07-12T12:38:54;35.10;51.80
11144;DHT22;5626;44.730;10.276;2022-07-12T12:41:25;35.20;51.40
11144;DHT22;5626;44.730;10.276;2022-07-12T12:44:00;35.40;51.60
11144;DHT22;5626;44.730;10.276;2022-07-12T12:46:52;35.60;51.70
11144;DHT22;5626;44.730;10.276;2022-07-12T12:49:43;35.60;51.40
11144;DHT22;5626;44.730;10.276;2022-07-12T12:52:16;35.60;52.20
11144;DHT22;5626;44.730;10.276;2022-07-12T12:54:49;35.40;52.50
11144;DHT22;5626;44.730;10.276;2022-07-12T12:57:20;35.30;52.80
11144;DHT22;5626;44.730;10.276;2022-07-12T12:59:50;35.30;52.50
11144;DHT22;5626;44.730;10.276;2022-07-12T13:02:20;35.30;52.90
11144;DHT22;5626;44.730;10.276;2022-07-12T13:04:52;35.40;52.90
11144;DHT22;5626;44.730;10.276;2022-07-12T13:07:22;35.40;51.90
11144;DHT22;5626;44.730;10.276;2022-07-12T13:09:54;35.10;52.80
11144;DHT22;5626;44.730;10.276;2022-07-12T13:12:24;35.10;53.00
11144;DHT22;5626;44.730;10.276;2022-07-12T13:14:54;35.10;53.00
11144;DHT22;5626;44.730;10.276;2022-07-12T13:17:24;35.20;53.10
11144;DHT22;5626;44.730;10.276;2022-07-12T13:19:53;35.40;53.30
11144;DHT22;5626;44.730;10.276;2022-07-12T13:22:23;35.50;52.50
11144;DHT22;5626;44.730;10.276;2022-07-12T13:24:55;35.60;52.80
11144;DHT22;5626;44.730;10.276;2022-07-12T13:27:26;35.70;52.30
11144;DHT22;5626;44.730;10.276;2022-07-12T13:29:56;35.80;52.00
11144;DHT22;5626;44.730;10.276;2022-07-12T13:32:26;35.80;52.40
11144;DHT22;5626;44.730;10.276;2022-07-12T13:34:56;35.90;51.80
11144;DHT22;5626;44.730;10.276;2022-07-12T13:37:29;35.90;51.30
11144;DHT22;5626;44.730;10.276;2022-07-12T13:40:01;35.80;51.50
11144;DHT22;5626;44.730;10.276;2022-07-12T13:42:46;35.70;51.60
11144;DHT22;5626;44.730;10.276;2022-07-12T13:45:18;35.60;51.10
11144;DHT22;5626;44.730;10.276;2022-07-12T13:47:51;35.40;51.30
11144;DHT22;5626;44.730;10.276;2022-07-12T13:50:22;35.30;51.70
11144;DHT22;5626;44.730;10.276;2022-07-12T13:52:56;35.30;51.60
11144;DHT22;5626;44.730;10.276;2022-07-12T13:55:29;35.30;51.70
11144;DHT22;5626;44.730;10.276;2022-07-12T13:58:03;35.30;51.50
11144;DHT22;5626;44.730;10.276;2022-07-12T14:00:36;35.30;51.70
11144;DHT22;5626;44.730;10.276;2022-07-12T14:03:06;35.30;51.70
11144;DHT22;5626;44.730;10.276;2022-07-12T14:05:38;35.20;52.30
11144;DHT22;5626;44.730;10.276;2022-07-12T14:08:08;35.40;52.30
11144;DHT22;5626;44.730;10.276;2022-07-12T14:10:42;35.50;52.50
11144;DHT22;5626;44.730;10.276;2022-07-12T14:13:12;35.60;52.30
11144;DHT22;5626;44.730;10.276;2022-07-12T14:15:42;35.70;51.80
11144;DHT22;5626;44.730;10.276;2022-07-12T14:18:13;35.80;51.60
11144;DHT22;5626;44.730;10.276;2022-07-12T14:20:44;35.80;51.70
11144;DHT22;5626;44.730;10.276;2022-07-12T14:23:14;35.90;51.10
11144;DHT22;5626;44.730;10.276;2022-07-12T14:25:45;35.80;51.30
11144;DHT22;5626;44.730;10.276;2022-07-12T14:28:15;35.80;50.80
11144;DHT22;5626;44.730;10.276;2022-07-12T14:30:45;35.80;51.20
11144;DHT22;5626;44.730;10.276;2022-07-12T14:33:15;35.80;52.10
11144;DHT22;5626;44.730;10.276;2022-07-12T14:35:45;35.90;51.40
11144;DHT22;5626;44.730;10.276;2022-07-12T14:38:15;35.80;51.20
11144;DHT22;5626;44.730;10.276;2022-07-12T14:40:46;35.80;50.40
11144;DHT22;5626;44.730;10.276;2022-07-12T14:43:16;35.90;50.60
11144;DHT22;5626;44.730;10.276;2022-07-12T14:45:48;35.90;50.20
11144;DHT22;5626;44.730;10.276;2022-07-12T14:48:18;35.90;50.40
11144;DHT22;5626;44.730;10.276;2022-07-12T14:50:48;35.90;50.30
11144;DHT22;5626;44.730;10.276;2022-07-12T14:53:20;35.90;50.60
11144;DHT22;5626;44.730;10.276;2022-07-12T14:55:51;35.90;50.80
11144;DHT22;5626;44.730;10.276;2022-07-12T14:58:21;36.00;50.40
11144;DHT22;5626;44.730;10.276;2022-07-12T15:00:51;36.00;50.40
11144;DHT22;5626;44.730;10.276;2022-07-12T15:03:21;35.90;50.30
11144;DHT22;5626;44.730;10.276;2022-07-12T15:05:51;35.80;50.70
11144;DHT22;5626;44.730;10.276;2022-07-12T15:08:20;35.80;49.90
11144;DHT22;5626;44.730;10.276;2022-07-12T15:10:52;35.80;50.50
11144;DHT22;5626;44.730;10.276;2022-07-12T15:13:21;35.80;50.60
11144;DHT22;5626;44.730;10.276;2022-07-12T15:15:51;35.80;50.20
11144;DHT22;5626;44.730;10.276;2022-07-12T15:18:21;35.70;50.40
11144;DHT22;5626;44.730;10.276;2022-07-12T15:20:52;35.80;50.50
11144;DHT22;5626;44.730;10.276;2022-07-12T15:23:22;35.80;49.70
11144;DHT22;5626;44.730;10.276;2022-07-12T15:25:53;35.80;49.60
11144;DHT22;5626;44.730;10.276;2022-07-12T15:28:25;35.80;49.50
11144;DHT22;5626;44.730;10.276;2022-07-12T15:30:57;35.70;49.70
11144;DHT22;5626;44.730;10.276;2022-07-12T15:33:27;35.70;50.30
11144;DHT22;5626;44.730;10.276;2022-07-12T15:35:57;35.70;50.50
11144;DHT22;5626;44.730;10.276;2022-07-12T15:38:26;35.70;50.00
11144;DHT22;5626;44.730;10.276;2022-07-12T15:40:58;35.60;50.40
11144;DHT22;5626;44.730;10.276;2022-07-12T15:43:29;35.60;50.70
11144;DHT22;5626;44.730;10.276;2022-07-12T15:45:58;35.60;49.60
11144;DHT22;5626;44.730;10.276;2022-07-12T15:48:28;35.60;50.00
11144;DHT22;5626;44.730;10.276;2022-07-12T15:50:58;35.50;50.50
11144;DHT22;5626;44.730;10.276;2022-07-12T15:53:28;35.50;50.50
11144;DHT22;5626;44.730;10.276;2022-07-12T15:56:00;35.50;50.10
11144;DHT22;5626;44.730;10.276;2022-07-12T15:58:31;35.40;50.50